sensor_id;sensor_type;location;lat;lon;timestamp;temperature;humidity
18218;DHT22;9234;49.344;11.120;2022-09-17T00:01:38;9.00;99.90
18218;DHT22;9234;49.344;11.120;2022-09-17T00:04:06;8.90;99.90
18218;DHT22;9234;49.344;11.120;2022-09-17T00:06:35;8.90;99.90
18218;DHT22;9234;49.344;11.120;2022-09-17T00:09:06;8.80;99.90
18218;DHT22;9234;49.344;11.120;2022-09-17T00:11:36;8.80;99.90
18218;DHT22;9234;49.344;11.120;2022-09-17T00:14:07;8.80;99.90
18218;DHT22;9234;49.344;11.120;2022-09-17T00:16:43;8.80;99.90
18218;DHT22;9234;49.344;11.120;2022-09-17T00:19:15;8.80;99.90
18218;DHT22;9234;49.344;11.120;2022-09-17T00:21:45;8.70;99.90
18218;DHT22;9234;49.344;11.120;2022-09-17T00:24:16;8.70;99.90
18218;DHT22;9234;49.344;11.120;2022-09-17T00:26:45;8.70;99.90
18218;DHT22;9234;49.344;11.120;2022-09-17T00:29:13;8.70;99.90
18218;DHT22;9234;49.344;11.120;2022-09-17T00:31:42;8.70;99.90
18218;DHT22;9234;49.344;11.120;2022-09-17T00:34:10;8.70;99.90
18218;DHT22;9234;49.344;11.120;2022-09-17T00:36:39;8.70;99.90
18218;DHT22;9234;49.344;11.120;2022-09-17T00:39:08;8.70;99.90
18218;DHT22;9234;49.344;11.120;2022-09-17T00:41:39;8.70;99.90
18218;DHT22;9234;49.344;11.120;2022-09-17T00:44:42;8.70;99.90
18218;DHT22;9234;49.344;11.120;2022-09-17T00:47:18;8.70;99.90
18218;DHT22;9234;49.344;11.120;2022-09-17T00:49:52;8.70;99.90
18218;DHT22;9234;49.344;11.120;2022-09-17T00:52:27;8.60;99.90
18218;DHT22;9234;49.344;11.120;2022-09-17T00:55:05;8.60;99.90
18218;DHT22;9234;49.344;11.120;2022-09-17T00:57:40;8.60;99.90
18218;DHT22;9234;49.344;11.120;2022-09-17T01:00:10;8.60;99.90
18218;DHT22;9234;49.344;11.120;2022-09-17T01:02:40;8.60;99.90
18218;DHT22;9234;49.344;11.120;2022-09-17T01:05:10;8.60;99.90
18218;DHT22;9234;49.344;11.120;2022-09-17T01:07:51;8.60;99.90
18218;DHT22;9234;49.344;11.120;2022-09-17T01:10:42;8.60;99.90
18218;DHT22;9234;49.344;11.120;2022-09-17T01:13:37;8.60;99.90
18218;DHT22;9234;49.344;11.120;2022-09-17T01:16:18;8.60;99.90
18218;DHT22;9234;49.344;11.120;2022-09-17T01:19:01;8.60;99.90
18218;DHT22;9234;49.344;11.120;2022-09-17T01:21:50;8.60;99.90
18218;DHT22;9234;49.344;11.120;2022-09-17T01:24:48;8.70;99.90
18218;DHT22;9234;49.344;11.120;2022-09-17T01:28:01;8.70;99.90
18218;DHT22;9234;49.344;11.120;2022-09-17T01:31:22;8.70;99.90
18218;DHT22;9234;49.344;11.120;2022-09-17T01:34:00;8.70;99.90
18218;DHT22;9234;49.344;11.120;2022-09-17T01:36:43;8.70;99.90
18218;DHT22;9234;49.344;11.120;2022-09-17T01:39:30;8.70;99.90
18218;DHT22;9234;49.344;11.120;2022-09-17T01:42:13;8.70;99.90
18218;DHT22;9234;49.344;11.120;2022-09-17T01:44:51;8.70;99.90
18218;DHT22;9234;49.344;11.120;2022-09-17T01:47:27;8.70;99.90
18218;DHT22;9234;49.344;11.120;2022-09-17T01:50:05;8.80;99.90
18218;DHT22;9234;49.344;11.120;2022-09-17T01:52:39;8.80;99.90
18218;DHT22;9234;49.344;11.120;2022-09-17T01:55:13;8.80;99.90
18218;DHT22;9234;49.344;11.120;2022-09-17T01:57:47;8.80;99.90
18218;DHT22;9234;49.344;11.120;2022-09-17T02:00:20;8.70;99.90
18218;DHT22;9234;49.344;11.120;2022-09-17T02:02:54;8.70;99.90
18218;DHT22;9234;49.344;11.120;2022-09-17T02:05:29;8.70;99.90
18218;DHT22;9234;49.344;11.120;2022-09-17T02:08:05;8.70;99.90
18218;DHT22;9234;49.344;11.120;2022-09-17T02:10:41;8.70;99.90
18218;DHT22;9234;49.344;11.120;2022-09-17T02:13:15;8.70;99.90
18218;DHT22;9234;49.344;11.120;2022-09-17T02:15:50;8.70;99.90
18218;DHT22;9234;49.344;11.120;2022-09-17T02:18:27;8.70;99.90
18218;DHT22;9234;49.344;11.120;2022-09-17T02:21:06;8.70;99.90
18218;DHT22;9234;49.344;11.120;2022-09-17T02:23:43;8.80;99.90
18218;DHT22;9234;49.344;11.120;2022-09-17T02:26:17;8.80;99.90
18218;DHT22;9234;49.344;11.120;2022-09-17T02:28:49;8.90;99.90
18218;DHT22;9234;49.344;11.120;2022-09-17T02:31:22;9.00;99.90
18218;DHT22;9234;49.344;11.120;2022-09-17T02:33:56;9.00;99.90
18218;DHT22;9234;49.344;11.120;2022-09-17T02:36:27;9.10;99.90
18218;DHT22;9234;49.344;11.120;2022-09-17T02:38:59;9.10;99.90
18218;DHT22;9234;49.344;11.120;2022-09-17T02:41:35;9.20;99.90
18218;DHT22;9234;49.344;11.120;2022-09-17T02:44:20;9.20;99.90
18218;DHT22;9234;49.344;11.120;2022-09-17T02:47:18;9.30;99.90
18218;DHT22;9234;49.344;11.120;2022-09-17T02:50:11;9.30;99.90
18218;DHT22;9234;49.344;11.120;2022-09-17T02:52:59;9.30;99.90
18218;DHT22;9234;49.344;11.120;2022-09-17T02:55:40;9.40;99.90
18218;DHT22;9234;49.344;11.120;2022-09-17T02:58:20;9.40;99.90
18218;DHT22;9234;49.344;11.120;2022-09-17T03:00:55;9.40;99.90
18218;DHT22;9234;49.344;11.120;2022-09-17T03:03:30;9.50;99.90
18218;DHT22;9234;49.344;11.120;2022-09-17T03:06:03;9.50;99.90
18218;DHT22;9234;49.344;11.120;2022-09-17T03:08:34;9.50;99.90
18218;DHT22;9234;49.344;11.120;2022-09-17T03:11:06;9.60;99.90
18218;DHT22;9234;49.344;11.120;2022-09-17T03:13:35;9.60;99.90
18218;DHT22;9234;49.344;11.120;2022-09-17T03:16:04;9.60;99.90
18218;DHT22;9234;49.344;11.120;2022-09-17T03:18:34;9.60;99.90
18218;DHT22;9234;49.344;11.120;2022-09-17T03:21:03;9.60;99.90
18218;DHT22;9234;49.344;11.120;2022-09-17T03:23:31;9.60;99.90
18218;DHT22;9234;49.344;11.120;2022-09-17T03:26:00;9.70;99.90
18218;DHT22;9234;49.344;11.120;2022-09-17T03:28:28;9.70;99.90
18218;DHT22;9234;49.344;11.120;2022-09-17T03:30:56;9.70;99.90
18218;DHT22;9234;49.344;11.120;2022-09-17T03:33:24;9.70;99.90
18218;DHT22;9234;49.344;11.120;2022-09-17T03:35:53;9.70;99.90
18218;DHT22;9234;49.344;11.120;2022-09-17T03:38:22;9.70;99.90
18218;DHT22;9234;49.344;11.120;2022-09-17T03:40:58;9.80;99.90
18218;DHT22;9234;49.344;11.120;2022-09-17T03:43:27;9.80;99.90
18218;DHT22;9234;49.344;11.120;2022-09-17T03:45:55;9.80;99.90
18218;DHT22;9234;49.344;11.120;2022-09-17T03:48:23;9.80;99.90
18218;DHT22;9234;49.344;11.120;2022-09-17T03:50:51;9.80;99.90
18218;DHT22;9234;49.344;11.120;2022-09-17T03:53:20;9.80;99.90
18218;DHT22;9234;49.344;11.120;2022-09-17T03:55:49;9.80;99.90
18218;DHT22;9234;49.344;11.120;2022-09-17T03:58:17;9.80;99.90
18218;DHT22;9234;49.344;11.120;2022-09-17T04:00:47;9.80;99.90
18218;DHT22;9234;49.344;11.120;2022-09-17T04:03:18;9.90;99.90
18218;DHT22;9234;49.344;11.120;2022-09-17T04:05:47;9.90;99.90
18218;DHT22;9234;49.344;11.120;2022-09-17T04:08:15;9.90;99.90
18218;DHT22;9234;49.344;11.120;2022-09-17T04:10:45;9.90;99.90
18218;DHT22;9234;49.344;11.120;2022-09-17T04:13:15;9.90;99.90
18218;DHT22;9234;49.344;11.120;2022-09-17T04:15:44;9.90;99.90
18218;DHT22;9234;49.344;11.120;2022-09-17T04:18:13;9.90;99.90
18218;DHT22;9234;49.344;11.120;2022-09-17T04:20:42;9.80;99.90
18218;DHT22;9234;49.344;11.120;2022-09-17T04:23:11;9.90;99.90
18218;DHT22;9234;49.344;11.120;2022-09-17T04:25:39;9.90;99.90
18218;DHT22;9234;49.344;11.120;2022-09-17T04:28:08;9.90;99.90
18218;DHT22;9234;49.344;11.120;2022-09-17T04:30:37;9.80;99.90
18218;DHT22;9234;49.344;11.120;2022-09-17T04:33:07;9.80;99.90
18218;DHT22;9234;49.344;11.120;2022-09-17T04:35:35;9.80;99.90
18218;DHT22;9234;49.344;11.120;2022-09-17T04:38:04;9.70;99.90
18218;DHT22;9234;49.344;11.120;2022-09-17T04:40:32;9.80;99.90
18218;DHT22;9234;49.344;11.120;2022-09-17T04:43:00;9.70;99.90
18218;DHT22;9234;49.344;11.120;2022-09-17T04:45:31;9.80;99.90
18218;DHT22;9234;49.344;11.120;2022-09-17T04:47:59;9.80;99.90
18218;DHT22;9234;49.344;11.120;2022-09-17T04:50:28;9.70;99.90
18218;DHT22;9234;49.344;11.120;2022-09-17T04:52:57;9.70;99.90
18218;DHT22;9234;49.344;11.120;2022-09-17T04:55:25;9.80;99.90
18218;DHT22;9234;49.344;11.120;2022-09-17T04:57:54;9.80;99.90
18218;DHT22;9234;49.344;11.120;2022-09-17T05:00:22;9.80;99.90
18218;DHT22;9234;49.344;11.120;2022-09-17T05:02:53;9.80;99.90
18218;DHT22;9234;49.344;11.120;2022-09-17T05:05:22;9.80;99.90
18218;DHT22;9234;49.344;11.120;2022-09-17T05:07:52;9.80;99.90
18218;DHT22;9234;49.344;11.120;2022-09-17T05:10:21;9.80;99.90
18218;DHT22;9234;49.344;11.120;2022-09-17T05:12:51;9.80;99.90
18218;DHT22;9234;49.344;11.120;2022-09-17T05:15:20;9.80;99.90
18218;DHT22;9234;49.344;11.120;2022-09-17T05:17:50;9.80;99.90
18218;DHT22;9234;49.344;11.120;2022-09-17T05:20:20;9.90;99.90
18218;DHT22;9234;49.344;11.120;2022-09-17T05:22:50;9.80;99.90
18218;DHT22;9234;49.344;11.120;2022-09-17T05:25:20;9.90;99.90
18218;DHT22;9234;49.344;11.120;2022-09-17T05:27:51;9.90;99.90
18218;DHT22;9234;49.344;11.120;2022-09-17T05:30:20;9.90;99.90
18218;DHT22;9234;49.344;11.120;2022-09-17T05:32:57;9.90;99.90
18218;DHT22;9234;49.344;11.120;2022-09-17T05:35:29;10.00;99.90
18218;DHT22;9234;49.344;11.120;2022-09-17T05:37:58;10.00;99.90
18218;DHT22;9234;49.344;11.120;2022-09-17T05:40:27;10.00;99.90
18218;DHT22;9234;49.344;11.120;2022-09-17T05:43:00;10.00;99.90
18218;DHT22;9234;49.344;11.120;2022-09-17T05:45:31;10.00;99.90
18218;DHT22;9234;49.344;11.120;2022-09-17T05:48:01;10.10;99.90
18218;DHT22;9234;49.344;11.120;2022-09-17T05:50:32;10.10;99.90
18218;DHT22;9234;49.344;11.120;2022-09-17T05:53:03;10.10;99.90
18218;DHT22;9234;49.344;11.120;2022-09-17T05:55:33;10.10;99.90
18218;DHT22;9234;49.344;11.120;2022-09-17T05:58:08;10.10;99.90
18218;DHT22;9234;49.344;11.120;2022-09-17T06:00:38;10.10;99.90
18218;DHT22;9234;49.344;11.120;2022-09-17T06:03:07;10.20;99.90
18218;DHT22;9234;49.344;11.120;2022-09-17T06:05:39;10.10;99.90
18218;DHT22;9234;49.344;11.120;2022-09-17T06:08:08;10.20;99.90
18218;DHT22;9234;49.344;11.120;2022-09-17T06:10:37;10.10;99.90
18218;DHT22;9234;49.344;11.120;2022-09-17T06:13:05;10.20;99.90
18218;DHT22;9234;49.344;11.120;2022-09-17T06:15:34;10.10;99.90
18218;DHT22;9234;49.344;11.120;2022-09-17T06:18:02;10.20;99.90
18218;DHT22;9234;49.344;11.120;2022-09-17T06:20:31;10.20;99.90
18218;DHT22;9234;49.344;11.120;2022-09-17T06:23:00;10.20;99.90
18218;DHT22;9234;49.344;11.120;2022-09-17T06:25:28;10.10;99.90
18218;DHT22;9234;49.344;11.120;2022-09-17T06:27:57;10.10;99.90
18218;DHT22;9234;49.344;11.120;2022-09-17T06:30:25;10.10;99.90
18218;DHT22;9234;49.344;11.120;2022-09-17T06:32:53;10.10;99.90
18218;DHT22;9234;49.344;11.120;2022-09-17T06:35:21;10.10;99.90
18218;DHT22;9234;49.344;11.120;2022-09-17T06:37:49;10.00;99.90
18218;DHT22;9234;49.344;11.120;2022-09-17T06:40:19;10.00;99.90
18218;DHT22;9234;49.344;11.120;2022-09-17T06:42:49;10.00;99.90
18218;DHT22;9234;49.344;11.120;2022-09-17T06:45:17;10.00;99.90
18218;DHT22;9234;49.344;11.120;2022-09-17T06:47:45;9.90;99.90
18218;DHT22;9234;49.344;11.120;2022-09-17T06:50:14;10.00;99.90
18218;DHT22;9234;49.344;11.120;2022-09-17T06:52:47;9.90;99.90
18218;DHT22;9234;49.344;11.120;2022-09-17T06:55:16;9.90;99.90
18218;DHT22;9234;49.344;11.120;2022-09-17T06:57:46;9.80;99.90
18218;DHT22;9234;49.344;11.120;2022-09-17T07:00:14;9.80;99.90
18218;DHT22;9234;49.344;11.120;2022-09-17T07:02:43;9.80;99.90
18218;DHT22;9234;49.344;11.120;2022-09-17T07:05:11;9.80;99.90
18218;DHT22;9234;49.344;11.120;2022-09-17T07:07:39;9.80;99.90
18218;DHT22;9234;49.344;11.120;2022-09-17T07:10:07;9.70;99.90
18218;DHT22;9234;49.344;11.120;2022-09-17T07:12:39;9.70;99.90
18218;DHT22;9234;49.344;11.120;2022-09-17T07:15:16;9.70;99.90
18218;DHT22;9234;49.344;11.120;2022-09-17T07:17:44;9.70;99.90
18218;DHT22;9234;49.344;11.120;2022-09-17T07:20:13;9.70;99.90
18218;DHT22;9234;49.344;11.120;2022-09-17T07:22:41;9.70;99.90
18218;DHT22;9234;49.344;11.120;2022-09-17T07:25:09;9.70;99.90
18218;DHT22;9234;49.344;11.120;2022-09-17T07:27:38;9.70;99.90
18218;DHT22;9234;49.344;11.120;2022-09-17T07:30:08;9.70;99.90
18218;DHT22;9234;49.344;11.120;2022-09-17T07:32:39;9.70;99.90
18218;DHT22;9234;49.344;11.120;2022-09-17T07:35:10;9.70;99.90
18218;DHT22;9234;49.344;11.120;2022-09-17T07:37:39;9.70;99.90
18218;DHT22;9234;49.344;11.120;2022-09-17T07:40:07;9.70;99.90
18218;DHT22;9234;49.344;11.120;2022-09-17T07:42:36;9.70;99.90
18218;DHT22;9234;49.344;11.120;2022-09-17T07:45:05;9.70;99.90
18218;DHT22;9234;49.344;11.120;2022-09-17T07:47:40;9.70;99.90
18218;DHT22;9234;49.344;11.120;2022-09-17T07:50:08;9.80;99.90
18218;DHT22;9234;49.344;11.120;2022-09-17T07:52:36;9.80;99.90
18218;DHT22;9234;49.344;11.120;2022-09-17T07:55:05;9.80;99.90
18218;DHT22;9234;49.344;11.120;2022-09-17T07:57:34;9.80;99.90
18218;DHT22;9234;49.344;11.120;2022-09-17T08:00:03;9.80;99.90
18218;DHT22;9234;49.344;11.120;2022-09-17T08:02:37;9.80;99.90
18218;DHT22;9234;49.344;11.120;2022-09-17T08:05:07;9.80;99.90
18218;DHT22;9234;49.344;11.120;2022-09-17T08:07:35;9.90;99.90
18218;DHT22;9234;49.344;11.120;2022-09-17T08:10:04;9.80;99.90
18218;DHT22;9234;49.344;11.120;2022-09-17T08:12:33;9.90;99.90
18218;DHT22;9234;49.344;11.120;2022-09-17T08:15:01;9.90;99.90
18218;DHT22;9234;49.344;11.120;2022-09-17T08:17:29;9.90;99.90
18218;DHT22;9234;49.344;11.120;2022-09-17T08:19:58;9.90;99.90
18218;DHT22;9234;49.344;11.120;2022-09-17T08:22:27;10.00;99.90
18218;DHT22;9234;49.344;11.120;2022-09-17T08:24:57;10.00;99.90
18218;DHT22;9234;49.344;11.120;2022-09-17T08:27:25;10.10;99.90
18218;DHT22;9234;49.344;11.120;2022-09-17T08:29:53;10.10;99.90
18218;DHT22;9234;49.344;11.120;2022-09-17T08:32:21;10.20;99.90
18218;DHT22;9234;49.344;11.120;2022-09-17T08:34:49;10.20;99.90
18218;DHT22;9234;49.344;11.120;2022-09-17T08:37:24;10.20;99.90
18218;DHT22;9234;49.344;11.120;2022-09-17T08:39:54;10.20;99.90
18218;DHT22;9234;49.344;11.120;2022-09-17T08:42:26;10.20;99.90
18218;DHT22;9234;49.344;11.120;2022-09-17T08:45:02;10.20;99.90
18218;DHT22;9234;49.344;11.120;2022-09-17T08:47:38;10.30;99.90
18218;DHT22;9234;49.344;11.120;2022-09-17T08:50:13;10.30;99.90
18218;DHT22;9234;49.344;11.120;2022-09-17T08:53:01;10.40;99.90
18218;DHT22;9234;49.344;11.120;2022-09-17T08:55:48;10.40;99.90
18218;DHT22;9234;49.344;11.120;2022-09-17T08:58:51;10.50;99.90
18218;DHT22;9234;49.344;11.120;2022-09-17T09:01:36;10.60;99.90
18218;DHT22;9234;49.344;11.120;2022-09-17T09:04:31;10.60;99.90
18218;DHT22;9234;49.344;11.120;2022-09-17T09:07:16;10.60;99.90
18218;DHT22;9234;49.344;11.120;2022-09-17T09:09:54;10.60;99.90
18218;DHT22;9234;49.344;11.120;2022-09-17T09:12:34;10.60;99.90
18218;DHT22;9234;49.344;11.120;2022-09-17T09:15:07;10.60;99.90
18218;DHT22;9234;49.344;11.120;2022-09-17T09:17:58;10.60;99.90
18218;DHT22;9234;49.344;11.120;2022-09-17T09:20:41;10.70;99.90
18218;DHT22;9234;49.344;11.120;2022-09-17T09:23:17;10.70;99.90
18218;DHT22;9234;49.344;11.120;2022-09-17T09:25:53;10.80;99.90
18218;DHT22;9234;49.344;11.120;2022-09-17T09:28:46;10.90;99.90
18218;DHT22;9234;49.344;11.120;2022-09-17T09:34:43;11.30;99.90
18218;DHT22;9234;49.344;11.120;2022-09-17T09:37:17;11.50;99.90
18218;DHT22;9234;49.344;11.120;2022-09-17T09:39:52;11.70;99.90
18218;DHT22;9234;49.344;11.120;2022-09-17T09:42:26;11.90;99.90
18218;DHT22;9234;49.344;11.120;2022-09-17T09:45:00;12.00;99.90
18218;DHT22;9234;49.344;11.120;2022-09-17T09:47:49;12.10;99.90
18218;DHT22;9234;49.344;11.120;2022-09-17T09:50:34;12.10;99.90
18218;DHT22;9234;49.344;11.120;2022-09-17T09:53:42;12.20;99.90
18218;DHT22;9234;49.344;11.120;2022-09-17T09:56:35;12.10;99.90
18218;DHT22;9234;49.344;11.120;2022-09-17T09:59:14;12.00;99.90
18218;DHT22;9234;49.344;11.120;2022-09-17T10:01:44;12.00;99.90
18218;DHT22;9234;49.344;11.120;2022-09-17T10:04:17;11.90;99.90
18218;DHT22;9234;49.344;11.120;2022-09-17T10:06:48;11.80;99.90
18218;DHT22;9234;49.344;11.120;2022-09-17T10:09:19;11.80;99.90
18218;DHT22;9234;49.344;11.120;2022-09-17T10:12:03;11.90;99.90
18218;DHT22;9234;49.344;11.120;2022-09-17T10:14:43;11.90;99.90
18218;DHT22;9234;49.344;11.120;2022-09-17T10:17:21;12.00;99.90
18218;DHT22;9234;49.344;11.120;2022-09-17T10:20:14;12.10;99.90
18218;DHT22;9234;49.344;11.120;2022-09-17T10:22:49;12.30;99.90
18218;DHT22;9234;49.344;11.120;2022-09-17T10:25:26;12.30;99.90
18218;DHT22;9234;49.344;11.120;2022-09-17T10:27:57;12.30;99.90
18218;DHT22;9234;49.344;11.120;2022-09-17T10:30:27;12.40;99.90
18218;DHT22;9234;49.344;11.120;2022-09-17T10:33:20;12.70;99.90
18218;DHT22;9234;49.344;11.120;2022-09-17T10:35:59;13.00;99.90
18218;DHT22;9234;49.344;11.120;2022-09-17T10:38:35;13.20;99.90
18218;DHT22;9234;49.344;11.120;2022-09-17T10:41:13;13.40;99.90
18218;DHT22;9234;49.344;11.120;2022-09-17T10:43:43;13.50;99.90
18218;DHT22;9234;49.344;11.120;2022-09-17T10:46:18;13.50;99.90
18218;DHT22;9234;49.344;11.120;2022-09-17T10:49:07;13.50;99.90
18218;DHT22;9234;49.344;11.120;2022-09-17T10:51:38;13.60;99.90
18218;DHT22;9234;49.344;11.120;2022-09-17T10:54:33;13.70;99.90
18218;DHT22;9234;49.344;11.120;2022-09-17T10:57:16;13.90;99.90
18218;DHT22;9234;49.344;11.120;2022-09-17T10:59:59;14.00;99.90
18218;DHT22;9234;49.344;11.120;2022-09-17T11:03:05;14.00;99.90
18218;DHT22;9234;49.344;11.120;2022-09-17T11:06:12;13.70;99.90
18218;DHT22;9234;49.344;11.120;2022-09-17T11:08:55;13.50;99.90
18218;DHT22;9234;49.344;11.120;2022-09-17T11:11:39;13.20;99.90
18218;DHT22;9234;49.344;11.120;2022-09-17T11:20:37;13.60;99.90
18218;DHT22;9234;49.344;11.120;2022-09-17T11:23:29;13.90;99.90
18218;DHT22;9234;49.344;11.120;2022-09-17T11:26:14;14.20;99.90
18218;DHT22;9234;49.344;11.120;2022-09-17T11:29:01;14.60;99.90
18218;DHT22;9234;49.344;11.120;2022-09-17T11:31:50;14.70;99.90
18218;DHT22;9234;49.344;11.120;2022-09-17T11:34:29;14.80;99.90
18218;DHT22;9234;49.344;11.120;2022-09-17T11:37:05;15.00;99.90
18218;DHT22;9234;49.344;11.120;2022-09-17T11:39:44;15.30;99.90
18218;DHT22;9234;49.344;11.120;2022-09-17T11:42:18;15.40;99.90
18218;DHT22;9234;49.344;11.120;2022-09-17T11:44:52;15.50;99.90
18218;DHT22;9234;49.344;11.120;2022-09-17T11:47:26;15.60;99.90
18218;DHT22;9234;49.344;11.120;2022-09-17T11:50:02;15.60;99.90
18218;DHT22;9234;49.344;11.120;2022-09-17T11:52:39;15.50;99.90
18218;DHT22;9234;49.344;11.120;2022-09-17T11:55:18;15.30;99.90
18218;DHT22;9234;49.344;11.120;2022-09-17T11:57:55;15.10;99.90
18218;DHT22;9234;49.344;11.120;2022-09-17T12:00:28;15.10;99.90
18218;DHT22;9234;49.344;11.120;2022-09-17T12:03:02;15.30;99.90
18218;DHT22;9234;49.344;11.120;2022-09-17T12:05:40;15.70;99.90
18218;DHT22;9234;49.344;11.120;2022-09-17T12:08:17;15.90;99.90
18218;DHT22;9234;49.344;11.120;2022-09-17T12:10:53;16.20;99.90
18218;DHT22;9234;49.344;11.120;2022-09-17T12:13:33;16.50;99.90
18218;DHT22;9234;49.344;11.120;2022-09-17T12:16:14;16.90;99.90
18218;DHT22;9234;49.344;11.120;2022-09-17T12:18:55;17.10;99.90
18218;DHT22;9234;49.344;11.120;2022-09-17T12:21:33;17.10;99.90
18218;DHT22;9234;49.344;11.120;2022-09-17T12:24:11;16.90;99.90
18218;DHT22;9234;49.344;11.120;2022-09-17T12:27:06;16.50;99.90
18218;DHT22;9234;49.344;11.120;2022-09-17T12:30:05;16.30;99.90
18218;DHT22;9234;49.344;11.120;2022-09-17T12:32:47;16.10;99.90
18218;DHT22;9234;49.344;11.120;2022-09-17T12:36:12;16.00;99.90
18218;DHT22;9234;49.344;11.120;2022-09-17T12:39:01;15.90;99.90
18218;DHT22;9234;49.344;11.120;2022-09-17T12:41:46;16.20;99.90
18218;DHT22;9234;49.344;11.120;2022-09-17T12:44:44;16.50;99.90
18218;DHT22;9234;49.344;11.120;2022-09-17T12:48:00;16.90;99.90
18218;DHT22;9234;49.344;11.120;2022-09-17T12:50:57;17.30;99.90
18218;DHT22;9234;49.344;11.120;2022-09-17T12:53:36;17.90;99.90
18218;DHT22;9234;49.344;11.120;2022-09-17T12:56:16;18.30;99.90
18218;DHT22;9234;49.344;11.120;2022-09-17T12:59:04;18.40;99.90
18218;DHT22;9234;49.344;11.120;2022-09-17T13:01:44;18.40;99.90
18218;DHT22;9234;49.344;11.120;2022-09-17T13:04:34;18.20;99.90
18218;DHT22;9234;49.344;11.120;2022-09-17T13:11:13;17.70;99.90
18218;DHT22;9234;49.344;11.120;2022-09-17T13:13:56;17.40;99.90
18218;DHT22;9234;49.344;11.120;2022-09-17T13:16:35;17.00;99.90
18218;DHT22;9234;49.344;11.120;2022-09-17T13:19:33;16.50;99.90
18218;DHT22;9234;49.344;11.120;2022-09-17T13:22:07;16.10;99.90
18218;DHT22;9234;49.344;11.120;2022-09-17T13:24:43;15.80;99.90
18218;DHT22;9234;49.344;11.120;2022-09-17T13:27:20;15.50;99.90
18218;DHT22;9234;49.344;11.120;2022-09-17T13:29:58;15.50;99.90
18218;DHT22;9234;49.344;11.120;2022-09-17T13:32:45;15.50;99.90
18218;DHT22;9234;49.344;11.120;2022-09-17T13:35:49;15.60;99.90
18218;DHT22;9234;49.344;11.120;2022-09-17T13:38:18;15.70;99.90
18218;DHT22;9234;49.344;11.120;2022-09-17T13:40:50;16.00;99.90
18218;DHT22;9234;49.344;11.120;2022-09-17T13:43:23;16.30;99.90
18218;DHT22;9234;49.344;11.120;2022-09-17T13:46:15;16.40;99.90
18218;DHT22;9234;49.344;11.120;2022-09-17T13:48:53;16.40;99.90
18218;DHT22;9234;49.344;11.120;2022-09-17T13:51:48;16.30;99.90
18218;DHT22;9234;49.344;11.120;2022-09-17T13:54:20;15.60;99.90
18218;DHT22;9234;49.344;11.120;2022-09-17T13:57:06;14.90;99.90
18218;DHT22;9234;49.344;11.120;2022-09-17T13:59:51;14.10;99.90
18218;DHT22;9234;49.344;11.120;2022-09-17T14:02:36;13.30;99.90
18218;DHT22;9234;49.344;11.120;2022-09-17T14:05:27;12.60;99.90
18218;DHT22;9234;49.344;11.120;2022-09-17T14:08:30;12.30;99.90
18218;DHT22;9234;49.344;11.120;2022-09-17T14:11:36;12.10;99.90
18218;DHT22;9234;49.344;11.120;2022-09-17T14:14:39;12.20;99.90
18218;DHT22;9234;49.344;11.120;2022-09-17T14:17:49;12.20;99.90
18218;DHT22;9234;49.344;11.120;2022-09-17T14:20:19;12.20;99.90
18218;DHT22;9234;49.344;11.120;2022-09-17T14:22:55;12.30;99.90
18218;DHT22;9234;49.344;11.120;2022-09-17T14:25:31;12.40;99.90
18218;DHT22;9234;49.344;11.120;2022-09-17T14:28:09;12.70;99.90
18218;DHT22;9234;49.344;11.120;2022-09-17T14:30:45;13.50;99.90
18218;DHT22;9234;49.344;11.120;2022-09-17T14:33:15;14.40;99.90
18218;DHT22;9234;49.344;11.120;2022-09-17T14:35:49;14.90;99.90
18218;DHT22;9234;49.344;11.120;2022-09-17T14:38:22;15.30;99.90
18218;DHT22;9234;49.344;11.120;2022-09-17T14:40:59;15.90;99.90
18218;DHT22;9234;49.344;11.120;2022-09-17T14:43:37;16.40;99.90
18218;DHT22;9234;49.344;11.120;2022-09-17T14:46:14;16.40;99.90
18218;DHT22;9234;49.344;11.120;2022-09-17T14:48:47;16.20;99.90
18218;DHT22;9234;49.344;11.120;2022-09-17T14:51:24;15.80;99.90
18218;DHT22;9234;49.344;11.120;2022-09-17T14:54:13;15.40;99.90
18218;DHT22;9234;49.344;11.120;2022-09-17T14:56:54;15.20;99.90
18218;DHT22;9234;49.344;11.120;2022-09-17T14:59:41;15.30;99.90
18218;DHT22;9234;49.344;11.120;2022-09-17T15:02:33;15.80;99.90
18218;DHT22;9234;49.344;11.120;2022-09-17T15:05:19;16.70;99.90
18218;DHT22;9234;49.344;11.120;2022-09-17T15:08:03;17.40;99.90
18218;DHT22;9234;49.344;11.120;2022-09-17T15:10:34;18.00;99.90
18218;DHT22;9234;49.344;11.120;2022-09-17T15:13:11;18.80;99.90
18218;DHT22;9234;49.344;11.120;2022-09-17T15:15:59;19.20;99.90
18218;DHT22;9234;49.344;11.120;2022-09-17T15:18:36;19.70;99.90
18218;DHT22;9234;49.344;11.120;2022-09-17T15:21:17;20.10;99.90
18218;DHT22;9234;49.344;11.120;2022-09-17T15:23:57;20.40;99.90
18218;DHT22;9234;49.344;11.120;2022-09-17T15:26:31;20.60;99.80
18218;DHT22;9234;49.344;11.120;2022-09-17T15:29:05;20.70;99.60
18218;DHT22;9234;49.344;11.120;2022-09-17T15:31:37;20.70;96.90
18218;DHT22;9234;49.344;11.120;2022-09-17T15:34:05;20.00;96.20
18218;DHT22;9234;49.344;11.120;2022-09-17T15:36:33;19.30;97.30
18218;DHT22;9234;49.344;11.120;2022-09-17T15:39:29;18.50;98.60
18218;DHT22;9234;49.344;11.120;2022-09-17T15:41:58;17.80;99.90
18218;DHT22;9234;49.344;11.120;2022-09-17T15:44:27;17.50;99.90
18218;DHT22;9234;49.344;11.120;2022-09-17T15:50:11;18.40;99.90
18218;DHT22;9234;49.344;11.120;2022-09-17T15:52:41;18.60;99.90
18218;DHT22;9234;49.344;11.120;2022-09-17T15:55:33;18.40;99.90
18218;DHT22;9234;49.344;11.120;2022-09-17T15:58:05;18.00;99.90
18218;DHT22;9234;49.344;11.120;2022-09-17T16:04:18;17.40;99.90
18218;DHT22;9234;49.344;11.120;2022-09-17T16:06:59;16.90;99.90
18218;DHT22;9234;49.344;11.120;2022-09-17T16:09:45;16.50;99.90
18218;DHT22;9234;49.344;11.120;2022-09-17T16:12:18;16.20;99.90
18218;DHT22;9234;49.344;11.120;2022-09-17T16:14:50;16.40;99.90
18218;DHT22;9234;49.344;11.120;2022-09-17T16:17:29;16.80;99.90
18218;DHT22;9234;49.344;11.120;2022-09-17T16:20:17;17.50;99.90
18218;DHT22;9234;49.344;11.120;2022-09-17T16:22:47;18.10;99.90
18218;DHT22;9234;49.344;11.120;2022-09-17T16:25:18;18.70;99.90
18218;DHT22;9234;49.344;11.120;2022-09-17T16:27:54;19.10;99.40
18218;DHT22;9234;49.344;11.120;2022-09-17T16:30:24;19.40;96.90
18218;DHT22;9234;49.344;11.120;2022-09-17T16:32:52;19.30;96.90
18218;DHT22;9234;49.344;11.120;2022-09-17T16:35:22;19.30;96.10
18218;DHT22;9234;49.344;11.120;2022-09-17T16:37:52;19.00;95.70
18218;DHT22;9234;49.344;11.120;2022-09-17T16:40:24;18.60;95.70
18218;DHT22;9234;49.344;11.120;2022-09-17T16:42:59;18.10;95.70
18218;DHT22;9234;49.344;11.120;2022-09-17T16:45:27;17.40;95.90
18218;DHT22;9234;49.344;11.120;2022-09-17T16:47:56;16.80;96.50
18218;DHT22;9234;49.344;11.120;2022-09-17T16:50:25;16.30;97.60
18218;DHT22;9234;49.344;11.120;2022-09-17T16:52:53;15.80;98.60
18218;DHT22;9234;49.344;11.120;2022-09-17T16:55:22;15.30;99.50